createdAt,value
2018-06-30T00:00:23.539Z,5.20
2018-06-30T00:02:51.949Z,4.27
2018-06-30T00:05:20.486Z,5.90
2018-06-30T00:07:49.003Z,6.57
2018-06-30T00:10:24.418Z,5.40
2018-06-30T00:12:52.910Z,5.20
2018-06-30T00:15:21.137Z,5.17
2018-06-30T00:17:49.624Z,5.50
2018-06-30T00:20:18.176Z,5.50
2018-06-30T00:22:46.738Z,6.23
2018-06-30T00:25:15.497Z,6.53
2018-06-30T00:27:43.910Z,4.93
2018-06-30T00:30:12.385Z,5.60
2018-06-30T00:32:40.849Z,4.77
2018-06-30T00:35:09.300Z,5.63
2018-06-30T00:37:37.765Z,6.07
2018-06-30T00:40:06.280Z,5.23
2018-06-30T00:42:34.771Z,5.37
2018-06-30T00:45:03.266Z,5.10
2018-06-30T00:47:31.820Z,5.43
2018-06-30T00:50:00.260Z,5.13
2018-06-30T00:52:28.804Z,4.83
2018-06-30T00:54:56.927Z,5.13
2018-06-30T00:57:25.382Z,5.40
2018-06-30T00:59:53.849Z,5.17
2018-06-30T01:02:22.637Z,4.97
2018-06-30T01:04:51.074Z,6.07
2018-06-30T01:07:19.588Z,5.87
2018-06-30T01:09:48.091Z,6.03
2018-06-30T01:12:16.601Z,4.70
2018-06-30T01:14:45.164Z,5.20
2018-06-30T01:17:13.586Z,5.60
2018-06-30T01:19:42.041Z,5.40
2018-06-30T01:22:10.567Z,5.50
2018-06-30T01:24:39.033Z,4.87
2018-06-30T01:27:07.542Z,5.30
2018-06-30T01:29:35.668Z,6.17
2018-06-30T01:32:04.081Z,5.97
2018-06-30T01:34:33.617Z,5.10
2018-06-30T01:37:02.122Z,6.33
2018-06-30T01:39:30.573Z,4.90
2018-06-30T01:41:59.013Z,5.63
2018-06-30T01:44:27.485Z,5.30
2018-06-30T01:46:55.939Z,5.60
2018-06-30T01:49:24.442Z,5.40
2018-06-30T01:51:52.941Z,5.90
2018-06-30T01:54:21.406Z,5.67
2018-06-30T01:56:51.072Z,4.90
2018-06-30T01:59:19.626Z,5.37
2018-06-30T02:01:48.133Z,5.03
2018-06-30T02:04:16.565Z,4.60
2018-06-30T02:06:45.216Z,5.03
2018-06-30T02:09:13.654Z,5.60
2018-06-30T02:11:42.114Z,5.60
2018-06-30T02:14:10.701Z,5.83
2018-06-30T02:16:39.159Z,5.53
2018-06-30T02:19:07.639Z,5.70
2018-06-30T02:21:36.111Z,5.60
2018-06-30T02:24:04.598Z,4.73
2018-06-30T02:26:33.032Z,5.03
2018-06-30T02:29:01.481Z,4.97
2018-06-30T02:31:29.906Z,5.10
2018-06-30T02:33:58.382Z,6.40
2018-06-30T02:36:26.830Z,6.30
2018-06-30T02:38:55.399Z,5.90
2018-06-30T02:41:23.836Z,5.60
2018-06-30T02:43:52.307Z,4.80
2018-06-30T02:46:20.775Z,5.47
2018-06-30T02:48:49.317Z,5.60
2018-06-30T02:51:17.956Z,6.57
2018-06-30T02:53:46.430Z,5.10
2018-06-30T02:56:15.157Z,5.50
2018-06-30T02:58:46.605Z,5.90
2018-06-30T03:01:15.076Z,4.20
2018-06-30T03:03:43.553Z,5.13
2018-06-30T03:06:12.076Z,5.17
2018-06-30T03:08:40.565Z,6.70
2018-06-30T03:11:08.999Z,5.90
2018-06-30T03:13:37.493Z,6.20
2018-06-30T03:16:05.954Z,5.93
2018-06-30T03:18:34.450Z,6.20
2018-06-30T03:21:03.957Z,5.30
2018-06-30T03:23:32.425Z,5.03
2018-06-30T03:26:01.014Z,5.47
2018-06-30T03:28:29.465Z,6.57
2018-06-30T03:30:57.903Z,5.77
2018-06-30T03:33:26.517Z,5.70
2018-06-30T03:35:54.676Z,5.67
2018-06-30T03:38:23.161Z,5.47
2018-06-30T03:40:51.774Z,5.90
2018-06-30T03:43:20.244Z,7.67
2018-06-30T03:45:48.764Z,5.70
2018-06-30T03:48:17.202Z,5.90
2018-06-30T03:50:45.277Z,6.87
2018-06-30T03:53:13.768Z,6.30
2018-06-30T03:55:42.233Z,7.33
2018-06-30T03:58:10.377Z,5.87
2018-06-30T04:00:38.869Z,5.73
2018-06-30T04:03:07.380Z,5.70
2018-06-30T04:05:35.821Z,5.07
2018-06-30T04:08:04.356Z,5.60
2018-06-30T04:10:32.852Z,5.67
2018-06-30T04:13:01.320Z,5.10
2018-06-30T04:15:29.774Z,5.00
2018-06-30T04:17:58.209Z,6.03
2018-06-30T04:20:26.861Z,6.50
2018-06-30T04:22:55.329Z,5.50
2018-06-30T04:25:23.827Z,5.40
2018-06-30T04:27:52.294Z,5.63
2018-06-30T04:30:20.806Z,6.17
2018-06-30T04:32:49.242Z,6.57
2018-06-30T04:35:17.343Z,5.90
2018-06-30T04:37:45.817Z,6.50
2018-06-30T04:40:14.484Z,6.93
2018-06-30T04:42:42.950Z,6.97
2018-06-30T04:45:11.082Z,7.47
2018-06-30T04:47:39.647Z,7.83
2018-06-30T04:50:08.141Z,6.77
2018-06-30T04:52:36.595Z,6.50
2018-06-30T04:55:05.118Z,7.37
2018-06-30T04:57:33.559Z,5.83
2018-06-30T05:00:01.971Z,6.57
2018-06-30T05:02:30.550Z,8.03
2018-06-30T05:04:59.040Z,7.20
2018-06-30T05:07:27.546Z,6.50
2018-06-30T05:09:56.022Z,8.97
2018-06-30T05:12:24.469Z,7.30
2018-06-30T05:14:52.990Z,7.73
2018-06-30T05:17:21.491Z,6.70
2018-06-30T05:19:49.684Z,9.83
2018-06-30T05:22:18.184Z,7.50
2018-06-30T05:24:46.895Z,6.90
2018-06-30T05:27:15.360Z,8.13
2018-06-30T05:29:43.822Z,7.27
2018-06-30T05:32:12.337Z,7.17
2018-06-30T05:34:40.997Z,7.80
2018-06-30T05:37:09.450Z,7.97
2018-06-30T05:39:37.865Z,6.97
2018-06-30T05:42:06.431Z,7.30
2018-06-30T05:44:34.866Z,7.23
2018-06-30T05:47:03.396Z,7.23
2018-06-30T05:49:31.905Z,6.60
2018-06-30T05:52:00.394Z,7.03
2018-06-30T05:54:28.880Z,7.57
2018-06-30T05:56:57.315Z,7.20
2018-06-30T05:59:25.947Z,7.37
2018-06-30T06:01:54.478Z,7.30
2018-06-30T06:04:22.967Z,7.80
2018-06-30T06:06:51.435Z,7.00
2018-06-30T06:09:19.979Z,7.30
2018-06-30T06:11:48.161Z,6.53
2018-06-30T06:14:16.794Z,6.93
2018-06-30T06:16:45.326Z,6.40
2018-06-30T06:19:13.933Z,5.50
2018-06-30T06:21:42.397Z,5.60
2018-06-30T06:24:10.566Z,6.07
2018-06-30T06:26:39.256Z,6.87
2018-06-30T06:29:07.836Z,7.00
2018-06-30T06:31:36.424Z,6.80
2018-06-30T06:34:05.060Z,7.60
2018-06-30T06:36:33.755Z,7.47
2018-06-30T06:39:02.270Z,8.47
2018-06-30T06:41:30.735Z,6.60
2018-06-30T06:43:59.844Z,6.97
2018-06-30T06:46:28.370Z,7.10
2018-06-30T06:48:56.776Z,7.30
2018-06-30T06:51:25.252Z,7.50
2018-06-30T06:53:53.867Z,7.20
2018-06-30T06:56:22.412Z,7.50
2018-06-30T06:58:51.061Z,7.90
2018-06-30T07:01:19.466Z,10.73
2018-06-30T07:03:47.989Z,8.80
2018-06-30T07:06:16.444Z,7.77
2018-06-30T07:08:45.335Z,9.10
2018-06-30T07:11:13.869Z,7.93
2018-06-30T07:13:42.516Z,9.23
2018-06-30T07:16:11.539Z,8.50
2018-06-30T07:18:40.108Z,7.67
2018-06-30T07:21:08.601Z,7.07
2018-06-30T07:23:36.731Z,6.90
2018-06-30T07:26:05.239Z,6.50
2018-06-30T07:28:33.745Z,4.60
2018-06-30T07:31:02.226Z,5.30
2018-06-30T07:33:31.002Z,5.47
2018-06-30T07:35:59.462Z,4.20
2018-06-30T07:38:27.919Z,5.30
2018-06-30T07:40:56.800Z,4.77
2018-06-30T07:43:25.770Z,4.10
2018-06-30T07:45:54.325Z,4.43
2018-06-30T07:48:22.840Z,4.00
2018-06-30T07:50:51.520Z,3.93
2018-06-30T07:53:20.068Z,4.43
2018-06-30T07:55:48.944Z,3.67
2018-06-30T07:58:17.908Z,4.33
2018-06-30T08:00:46.384Z,3.93
2018-06-30T08:03:14.975Z,4.40
2018-06-30T08:05:43.471Z,3.23
2018-06-30T08:08:12.189Z,4.30
2018-06-30T08:10:41.571Z,4.17
2018-06-30T08:13:10.267Z,3.80
2018-06-30T08:15:39.339Z,3.97
2018-06-30T08:18:08.000Z,4.60
2018-06-30T08:20:37.282Z,2.83
2018-06-30T08:23:06.024Z,3.70
2018-06-30T08:25:34.689Z,3.50
2018-06-30T08:28:03.257Z,3.70
2018-06-30T08:30:32.376Z,3.70
2018-06-30T08:33:00.830Z,3.83
2018-06-30T08:35:29.631Z,4.57
2018-06-30T08:37:58.199Z,3.80
2018-06-30T08:40:26.854Z,4.00
2018-06-30T08:42:55.325Z,4.40
2018-06-30T08:45:24.116Z,3.83
2018-06-30T08:47:52.756Z,3.60
2018-06-30T08:50:21.317Z,3.93
2018-06-30T08:52:49.949Z,4.23
2018-06-30T08:55:18.562Z,4.13
2018-06-30T08:57:46.993Z,3.83
2018-06-30T09:00:15.918Z,4.47
2018-06-30T09:02:44.494Z,3.20
2018-06-30T09:05:13.060Z,3.90
2018-06-30T09:07:41.503Z,4.03
2018-06-30T09:10:10.350Z,3.87
2018-06-30T09:12:39.345Z,4.30
2018-06-30T09:15:07.885Z,4.70
2018-06-30T09:17:36.396Z,3.93
2018-06-30T09:20:05.371Z,3.83
2018-06-30T09:22:34.209Z,4.50
2018-06-30T09:25:02.677Z,4.83
2018-06-30T09:27:31.180Z,3.80
2018-06-30T09:29:59.301Z,4.10
2018-06-30T09:32:28.089Z,4.60
2018-06-30T09:34:56.516Z,4.27
2018-06-30T09:37:25.105Z,4.07
2018-06-30T09:39:53.620Z,4.10
2018-06-30T09:42:22.133Z,5.00
2018-06-30T09:44:50.991Z,3.80
2018-06-30T09:47:19.647Z,7.07
2018-06-30T09:49:48.311Z,4.63
2018-06-30T09:52:16.874Z,3.90
2018-06-30T09:54:45.734Z,4.30
2018-06-30T09:57:14.196Z,3.93
2018-06-30T09:59:42.953Z,4.37
2018-06-30T10:02:11.589Z,4.80
2018-06-30T10:04:40.134Z,4.00
2018-06-30T10:07:09.414Z,4.53
2018-06-30T10:09:38.065Z,4.10
2018-06-30T10:12:06.569Z,4.50
2018-06-30T10:14:36.497Z,4.40
2018-06-30T10:17:05.365Z,4.80
2018-06-30T10:19:33.999Z,4.50
2018-06-30T10:22:02.151Z,4.47
2018-06-30T10:24:31.502Z,4.43
2018-06-30T10:27:00.907Z,4.37
2018-06-30T10:29:29.555Z,4.03
2018-06-30T10:31:58.456Z,5.10
2018-06-30T10:34:26.973Z,4.70
2018-06-30T10:36:56.282Z,4.43
2018-06-30T10:39:25.085Z,4.10
2018-06-30T10:41:53.736Z,3.60
2018-06-30T10:44:22.236Z,5.77
2018-06-30T10:46:50.891Z,4.00
2018-06-30T10:49:19.404Z,4.63
2018-06-30T10:51:48.134Z,5.50
2018-06-30T10:54:16.947Z,4.70
2018-06-30T10:56:45.607Z,5.20
2018-06-30T10:59:14.083Z,4.70
2018-06-30T11:01:42.577Z,3.90
2018-06-30T11:04:11.125Z,4.67
2018-06-30T11:06:39.577Z,4.37
2018-06-30T11:09:10.365Z,4.10
2018-06-30T11:11:38.608Z,5.00
2018-06-30T11:14:07.117Z,5.07
2018-06-30T11:16:35.525Z,5.30
2018-06-30T11:19:04.088Z,5.17
2018-06-30T11:21:32.614Z,5.10
2018-06-30T11:24:01.124Z,5.30
2018-06-30T11:26:29.560Z,5.57
2018-06-30T11:28:58.401Z,5.53
2018-06-30T11:31:26.855Z,5.50
2018-06-30T11:33:56.137Z,5.10
2018-06-30T11:36:24.995Z,5.27
2018-06-30T11:38:53.509Z,5.60
2018-06-30T11:41:22.714Z,5.47
2018-06-30T11:43:51.226Z,5.73
2018-06-30T11:46:19.818Z,6.03
2018-06-30T11:48:48.309Z,5.60
2018-06-30T11:51:16.746Z,5.60
2018-06-30T11:53:45.497Z,5.40
2018-06-30T11:56:14.562Z,5.93
2018-06-30T11:58:43.323Z,7.00
2018-06-30T12:01:11.899Z,5.57
2018-06-30T12:03:40.968Z,4.73
2018-06-30T12:06:09.465Z,6.10
2018-06-30T12:08:37.984Z,4.93
2018-06-30T12:11:06.165Z,4.67
2018-06-30T12:13:34.968Z,5.43
2018-06-30T12:16:03.389Z,5.50
2018-06-30T12:18:31.943Z,5.47
2018-06-30T12:21:00.907Z,4.90
2018-06-30T12:23:29.417Z,5.77
2018-06-30T12:25:58.193Z,6.00
2018-06-30T12:28:26.833Z,5.10
2018-06-30T12:30:55.547Z,5.07
2018-06-30T12:33:24.235Z,4.70
2018-06-30T12:35:52.809Z,4.83
2018-06-30T12:38:21.710Z,5.00
2018-06-30T12:40:50.380Z,5.23
2018-06-30T12:43:19.332Z,6.30
2018-06-30T12:45:48.535Z,5.83
2018-06-30T12:48:17.357Z,5.30
2018-06-30T12:50:45.808Z,4.90
2018-06-30T12:53:14.334Z,5.20
2018-06-30T12:55:43.323Z,5.53
2018-06-30T12:58:12.037Z,4.90
2018-06-30T13:00:40.954Z,5.23
2018-06-30T13:03:09.748Z,4.87
2018-06-30T13:05:38.252Z,4.70
2018-06-30T13:08:07.068Z,4.67
2018-06-30T13:10:35.677Z,5.30
2018-06-30T13:13:04.307Z,4.80
2018-06-30T13:15:33.175Z,4.77
2018-06-30T13:18:01.720Z,4.73
2018-06-30T13:20:30.317Z,5.73
2018-06-30T13:23:00.050Z,6.43
2018-06-30T13:25:28.651Z,4.67
2018-06-30T13:27:57.169Z,4.80
2018-06-30T13:30:25.325Z,4.60
2018-06-30T13:32:54.265Z,4.73
2018-06-30T13:35:22.871Z,4.77
2018-06-30T13:37:51.770Z,4.47
2018-06-30T13:40:20.398Z,6.80
2018-06-30T13:42:48.551Z,4.47
2018-06-30T13:45:23.541Z,4.17
2018-06-30T13:47:52.177Z,4.20
2018-06-30T13:50:20.851Z,5.70
2018-06-30T13:52:49.625Z,4.40
2018-06-30T13:55:18.190Z,3.60
2018-06-30T13:57:46.789Z,4.57
2018-06-30T14:00:15.613Z,4.00
2018-06-30T14:02:44.092Z,4.87
2018-06-30T14:05:12.636Z,4.70
2018-06-30T14:07:41.313Z,4.70
2018-06-30T14:10:10.162Z,4.60
2018-06-30T14:12:38.484Z,4.20
2018-06-30T14:15:08.804Z,4.83
2018-06-30T14:17:37.366Z,4.20
2018-06-30T14:20:07.374Z,3.20
2018-06-30T14:22:35.857Z,4.53
2018-06-30T14:25:04.681Z,4.60
2018-06-30T14:27:33.426Z,4.07
2018-06-30T14:30:01.976Z,4.77
2018-06-30T14:32:30.524Z,4.00
2018-06-30T14:34:59.076Z,4.33
2018-06-30T14:37:27.844Z,3.50
2018-06-30T14:39:56.582Z,3.90
2018-06-30T14:42:25.371Z,4.70
2018-06-30T14:44:54.374Z,3.63
2018-06-30T14:47:22.893Z,4.03
2018-06-30T14:49:52.077Z,3.67
2018-06-30T14:52:20.725Z,3.83
2018-06-30T14:54:49.416Z,4.27
2018-06-30T14:57:18.123Z,3.80
2018-06-30T14:59:46.790Z,4.00
2018-06-30T15:02:15.336Z,3.27
2018-06-30T15:04:44.181Z,3.93
2018-06-30T15:07:12.738Z,3.50
2018-06-30T15:09:41.392Z,3.40
2018-06-30T15:12:09.827Z,3.80
2018-06-30T15:14:38.381Z,3.17
2018-06-30T15:17:06.978Z,3.23
2018-06-30T15:19:35.494Z,3.63
2018-06-30T15:22:04.154Z,3.40
2018-06-30T15:24:32.821Z,4.37
2018-06-30T15:27:01.350Z,3.37
2018-06-30T15:29:30.067Z,3.10
2018-06-30T15:31:58.586Z,2.93
2018-06-30T15:34:27.084Z,3.40
2018-06-30T15:36:55.606Z,3.27
2018-06-30T15:39:23.960Z,4.27
2018-06-30T15:41:52.725Z,2.57
2018-06-30T15:44:21.550Z,2.77
2018-06-30T15:46:50.423Z,3.07
2018-06-30T15:49:19.764Z,3.30
2018-06-30T15:51:48.281Z,3.20
2018-06-30T15:54:17.297Z,3.07
2018-06-30T15:56:45.888Z,3.20
2018-06-30T15:59:14.433Z,2.57
2018-06-30T16:01:42.938Z,2.67
2018-06-30T16:04:11.438Z,2.53
2018-06-30T16:06:39.944Z,2.80
2018-06-30T16:09:10.461Z,2.67
2018-06-30T16:11:39.416Z,2.40
2018-06-30T16:14:08.708Z,2.63
2018-06-30T16:16:37.505Z,4.33
2018-06-30T16:19:06.052Z,2.23
2018-06-30T16:21:35.137Z,1.57
2018-06-30T16:24:03.641Z,1.77
2018-06-30T16:26:32.146Z,1.77
2018-06-30T16:29:00.718Z,5.47
2018-06-30T16:31:30.470Z,3.93
2018-06-30T16:33:59.059Z,1.53
2018-06-30T16:36:27.300Z,1.87
2018-06-30T16:38:55.762Z,2.17
2018-06-30T16:41:24.565Z,1.60
2018-06-30T16:43:53.545Z,1.57
2018-06-30T16:46:22.182Z,1.30
2018-06-30T16:48:50.766Z,1.47
2018-06-30T16:51:19.344Z,1.90
2018-06-30T16:53:47.967Z,1.20
2018-06-30T16:56:16.580Z,1.17
2018-06-30T16:58:45.149Z,1.30
2018-06-30T17:01:13.619Z,1.23
2018-06-30T17:03:42.157Z,0.93
2018-06-30T17:06:10.749Z,1.10
2018-06-30T17:08:39.344Z,1.00
2018-06-30T17:11:08.069Z,1.23
2018-06-30T17:13:36.616Z,0.80
2018-06-30T17:16:05.223Z,0.80
2018-06-30T17:18:33.821Z,0.80
2018-06-30T17:21:02.755Z,0.80
2018-06-30T17:23:31.330Z,1.00
2018-06-30T17:25:59.965Z,0.70
2018-06-30T17:28:28.550Z,0.70
2018-06-30T17:30:57.220Z,1.10
2018-06-30T17:33:25.787Z,0.90
2018-06-30T17:35:54.396Z,0.73
2018-06-30T17:38:23.013Z,0.60
2018-06-30T17:40:51.833Z,0.80
2018-06-30T17:43:20.358Z,0.90
2018-06-30T17:45:49.060Z,0.87
2018-06-30T17:48:17.754Z,0.90
2018-06-30T17:50:46.715Z,1.03
2018-06-30T17:53:15.282Z,0.80
2018-06-30T17:55:44.250Z,0.80
2018-06-30T17:58:12.697Z,0.80
2018-06-30T18:00:41.505Z,0.80
2018-06-30T18:03:10.287Z,0.90
2018-06-30T18:05:38.890Z,0.93
2018-06-30T18:08:07.702Z,0.80
2018-06-30T18:10:36.273Z,0.63
2018-06-30T18:13:04.809Z,0.70
2018-06-30T18:15:33.353Z,0.83
2018-06-30T18:18:02.013Z,0.70
2018-06-30T18:20:30.264Z,0.70
2018-06-30T18:22:58.847Z,0.60
2018-06-30T18:25:27.328Z,0.70
2018-06-30T18:27:56.674Z,0.67
2018-06-30T18:30:25.182Z,0.90
2018-06-30T18:32:53.731Z,0.97
2018-06-30T18:35:22.035Z,0.60
2018-06-30T18:37:50.729Z,0.60
2018-06-30T18:40:19.466Z,0.93
2018-06-30T18:42:48.188Z,0.77
2018-06-30T18:45:17.004Z,0.80
2018-06-30T18:47:45.754Z,0.80
2018-06-30T18:50:14.611Z,0.70
2018-06-30T18:52:43.231Z,0.90
2018-06-30T18:55:11.926Z,0.90
2018-06-30T18:57:40.444Z,0.80
2018-06-30T19:00:09.462Z,1.00
2018-06-30T19:02:37.801Z,0.70
2018-06-30T19:05:06.780Z,0.70
2018-06-30T19:07:35.379Z,0.80
2018-06-30T19:10:04.104Z,0.80
2018-06-30T19:12:32.590Z,1.20
2018-06-30T19:15:01.189Z,0.70
2018-06-30T19:17:29.581Z,0.80
2018-06-30T19:19:58.320Z,0.80
2018-06-30T19:22:26.918Z,0.73
2018-06-30T19:24:55.920Z,0.70
2018-06-30T19:27:24.162Z,0.77
2018-06-30T19:29:52.823Z,1.20
2018-06-30T19:32:21.323Z,0.90
2018-06-30T19:34:49.834Z,0.70
2018-06-30T19:37:18.784Z,1.30
2018-06-30T19:39:47.556Z,1.23
2018-06-30T19:42:16.223Z,1.30
2018-06-30T19:44:44.738Z,1.00
2018-06-30T19:47:13.402Z,1.20
2018-06-30T19:49:42.046Z,0.90
2018-06-30T19:52:11.078Z,0.80
2018-06-30T19:54:39.658Z,0.87
2018-06-30T19:57:09.225Z,0.90
2018-06-30T19:59:37.742Z,1.87
2018-06-30T20:02:06.306Z,0.90
2018-06-30T20:04:34.802Z,0.90
2018-06-30T20:07:03.358Z,0.87
2018-06-30T20:09:31.990Z,0.90
2018-06-30T20:12:01.484Z,1.20
2018-06-30T20:14:29.985Z,0.73
2018-06-30T20:16:58.502Z,0.80
2018-06-30T20:19:27.003Z,0.70
2018-06-30T20:21:55.253Z,0.90
2018-06-30T20:24:23.894Z,0.80
2018-06-30T20:26:52.971Z,1.03
2018-06-30T20:29:21.765Z,1.00
2018-06-30T20:31:50.130Z,0.83
2018-06-30T20:34:18.686Z,0.77
2018-06-30T20:36:47.221Z,0.70
2018-06-30T20:39:15.722Z,0.70
2018-06-30T20:41:44.289Z,0.77
2018-06-30T20:44:13.028Z,0.70
2018-06-30T20:46:41.630Z,0.80
2018-06-30T20:49:10.222Z,0.90
2018-06-30T20:51:38.772Z,1.30
2018-06-30T20:54:07.326Z,1.23
2018-06-30T20:56:36.127Z,0.70
2018-06-30T20:59:04.651Z,1.47
2018-06-30T21:01:33.363Z,0.80
2018-06-30T21:04:02.988Z,1.47
2018-06-30T21:06:31.589Z,0.77
2018-06-30T21:09:00.721Z,1.10
2018-06-30T21:11:28.905Z,0.80
2018-06-30T21:13:57.488Z,0.77
2018-06-30T21:16:26.038Z,1.53
2018-06-30T21:18:54.629Z,1.10
2018-06-30T21:21:23.794Z,0.90
2018-06-30T21:23:52.324Z,0.70
2018-06-30T21:26:21.198Z,0.80
2018-06-30T21:28:49.739Z,0.63
2018-06-30T21:31:18.275Z,0.70
2018-06-30T21:33:46.426Z,0.70
2018-06-30T21:36:14.990Z,0.77
2018-06-30T21:38:43.490Z,0.70
2018-06-30T21:41:12.381Z,0.80
2018-06-30T21:43:40.907Z,0.70
2018-06-30T21:46:09.427Z,0.80
2018-06-30T21:48:38.117Z,0.83
2018-06-30T21:51:06.641Z,0.90
2018-06-30T21:53:35.453Z,0.80
2018-06-30T21:56:04.173Z,1.00
2018-06-30T21:58:32.975Z,0.70
2018-06-30T22:01:06.841Z,0.70
2018-06-30T22:03:35.430Z,0.70
2018-06-30T22:06:04.007Z,0.67
2018-06-30T22:08:32.768Z,0.70
2018-06-30T22:11:01.119Z,0.90
2018-06-30T22:13:29.661Z,0.90
2018-06-30T22:15:58.205Z,0.70
2018-06-30T22:18:26.644Z,0.70
2018-06-30T22:20:55.030Z,0.70
2018-06-30T22:23:24.018Z,1.03
2018-06-30T22:25:52.554Z,0.70
2018-06-30T22:28:21.131Z,0.80
2018-06-30T22:30:49.603Z,1.00
2018-06-30T22:33:18.087Z,0.60
2018-06-30T22:35:46.552Z,0.70
2018-06-30T22:38:14.692Z,0.90
2018-06-30T22:40:43.329Z,1.03
2018-06-30T22:43:11.890Z,2.33
2018-06-30T22:45:40.315Z,0.80
2018-06-30T22:48:08.911Z,11.30
2018-06-30T22:50:37.689Z,8.00
2018-06-30T22:53:06.270Z,1.10
2018-06-30T22:55:34.964Z,17.50
2018-06-30T22:58:03.545Z,0.87
2018-06-30T23:00:32.139Z,0.97
2018-06-30T23:03:02.888Z,0.90
2018-06-30T23:05:31.341Z,0.83
2018-06-30T23:07:59.832Z,0.80
2018-06-30T23:10:29.129Z,0.70
2018-06-30T23:12:57.654Z,0.63
2018-06-30T23:15:26.506Z,0.60
2018-06-30T23:17:55.133Z,1.67
2018-06-30T23:20:23.396Z,1.07
2018-06-30T23:22:58.098Z,0.80
2018-06-30T23:25:27.718Z,1.00
2018-06-30T23:27:56.955Z,0.70
2018-06-30T23:30:25.600Z,1.20
2018-06-30T23:32:54.530Z,0.60
2018-06-30T23:35:24.116Z,0.93
2018-06-30T23:37:53.391Z,0.90
2018-06-30T23:40:23.091Z,0.80
2018-06-30T23:42:52.136Z,0.83
2018-06-30T23:45:20.726Z,0.80
2018-06-30T23:47:50.110Z,0.63
2018-06-30T23:50:18.603Z,0.90
2018-06-30T23:52:46.880Z,1.00
2018-06-30T23:55:15.101Z,0.87
2018-06-30T23:57:43.792Z,1.00
